Detall de PIREP

Printer-friendly versionPDF version

[2016/10/01 07:46:00]
Flight IATA:CT1054
Pilot Number:012
Company ICAO:CAT
Aircraft Type:F50/A
PAX:50
Aircraft Registration:PAOB
Departing Airport: LICD
Destination Airport: LIEA
Alternate Airport:LIEO
Online: VATSIM
Route:VERAK UM740 MEGAN UM732 SODIO
Flight Level:F200
No Slew and time accel
No pause
Crash detect
Detect pilot in Cockpit between each 30 and 45 minutes
07:46 Zero fuel Weight: 35840 Lbs, Fuel Weight: 6272 Lbs
07:46 VATSIM:LICD 010650Z 11008KT 7000 SCT020 BKN033 25/25 Q1017
07:46 VATSIM:LIEA 010720Z 36005KT 9999 SCT034 21/16 Q1015
07:46 MEDITERRANEAN ODYSSEY
07:58 Parking Brakes off
08:02 Take-off
08:02 Take off Weight: 42001 Lbs
08:02 Wind: 107º @ 008 Knots Heading: 080º
08:02 POS N35º 29´ 50´´ E012º 37´ 11´´
08:02 Flaps:2 at 120 Knots
08:02 Gear Up: 121 Knots
08:02 Flaps:1 at 131 Knots
08:03 Flaps:0 at 145 Knots
08:13 TOC
08:13 Fuel Weight: 5653 Lb
08:17 Wind:222º@021 Knots Heading: 334º Ground Speed: 304 Knots Altitude 20026 ft
08:32 Wind:221º@034 Knots Heading: 357º Ground Speed: 280 Knots Altitude 20108 ft
08:47 Wind:224º@032 Knots Heading: 301º Ground Speed: 252 Knots Altitude 20095 ft
09:02 Wind:225º@031 Knots Heading: 301º Ground Speed: 251 Knots Altitude 20055 ft
09:17 Wind:226º@031 Knots Heading: 320º Ground Speed: 261 Knots Altitude 20036 ft
09:25 TOD
09:25 Fuel Weight: 3643 Lb
09:32 Wind:217º@014 Knots Heading: 330º Ground Speed: 254 Knots Altitude 9717 ft
09:40 Flaps:1 at 176 Knots
09:41 Flaps:2 at 147 Knots
09:42 Gear Down: 135 Knots
09:42 Flaps:3 at 135 Knots
09:43 Flaps:4 at 130 Knots
09:43 Flaps:5 at 121 Knots
09:44 Flaps:6 at 119 Knots
09:45 TouchDown:Rate -187 ft/min Speed: 101 Knots
09:45 Flaps:5 at 54 Knots
09:46 Flaps:0 at 53 Knots
09:46 VATSIM:LIEA 010920Z 02004KT 290V060 9999 FEW034 SCT040 25/16 Q1015
09:46 Land
09:46 Wind:275º@005 Knots
09:46 Heading: 206º
09:46 Flight Duration: 01:44
09:46 Landing Weight: 39165 Lbs
09:46 POS N40º 38´ 00´´ E008º 17´ 30´´
09:49 Parking brakes on
09:49 Block to Block Duration: 01:51
09:49 Final Fuel: 3291 Lbls
09:49 Spent Fuel: 2980 Lbls
09:49 Flight Length: 423 NM
09:49 TOD Land Length: 72 NM

Exportar CSV

Powered by Drupal - Modified by Danger4k